createdAt,value
2019-02-21T06:55:44.955Z,99.99
2019-02-21T06:56:44.932Z,99.99
2019-02-21T06:57:44.939Z,99.99
2019-02-21T06:58:44.944Z,99.99
2019-02-21T06:59:45.403Z,99.99
2019-02-21T07:00:46.222Z,99.99
2019-02-21T07:01:44.952Z,99.99
2019-02-21T07:02:44.956Z,99.99
2019-02-21T07:03:44.963Z,99.99
2019-02-21T07:04:44.966Z,99.99
2019-02-21T07:05:44.975Z,99.99
2019-02-21T07:06:44.973Z,99.99
2019-02-21T07:07:44.987Z,99.99
2019-02-21T07:08:44.979Z,99.99
2019-02-21T07:09:44.987Z,99.99
2019-02-21T07:10:44.987Z,99.99
2019-02-21T07:11:46.083Z,99.99
2019-02-21T07:12:44.996Z,99.99
2019-02-21T07:13:44.996Z,99.99
2019-02-21T07:14:45.005Z,99.99
2019-02-21T07:15:45.028Z,99.99
2019-02-21T07:16:45.008Z,99.99
2019-02-21T07:17:49.186Z,99.99
2019-02-21T07:18:45.018Z,99.99
2019-02-21T07:19:45.019Z,99.99
2019-02-21T07:20:45.022Z,99.99
2019-02-21T07:21:45.028Z,99.99
2019-02-21T07:22:45.034Z,99.99
2019-02-21T07:23:45.027Z,99.99
2019-02-21T07:24:45.032Z,99.99
2019-02-21T07:25:45.044Z,99.99
2019-02-21T07:26:45.051Z,99.99
2019-02-21T07:27:45.114Z,99.99
2019-02-21T07:28:45.056Z,99.99
2019-02-21T07:29:45.055Z,99.99
2019-02-21T07:30:45.062Z,99.99
2019-02-21T07:31:45.065Z,99.99
2019-02-21T07:32:45.077Z,99.99
2019-02-21T07:33:45.078Z,99.99
2019-02-21T07:34:45.078Z,99.99
2019-02-21T07:35:45.083Z,99.99
2019-02-21T07:36:45.090Z,99.99
2019-02-21T07:37:45.099Z,99.99
2019-02-21T07:38:45.089Z,99.99
2019-02-21T07:39:45.101Z,99.99
2019-02-21T07:40:45.102Z,99.99
2019-02-21T07:41:45.105Z,99.99
2019-02-21T07:42:45.125Z,99.99
2019-02-21T07:43:45.136Z,99.99
2019-02-21T07:44:45.463Z,99.99
2019-02-21T07:45:45.136Z,99.99
2019-02-21T07:46:46.314Z,99.99
2019-02-21T07:47:45.136Z,99.99
2019-02-21T07:48:45.139Z,99.99
2019-02-21T07:49:45.149Z,99.99
2019-02-21T07:50:45.159Z,99.99
2019-02-21T07:51:45.154Z,99.99
2019-02-21T07:52:45.168Z,99.99
2019-02-21T07:53:45.165Z,99.99
2019-02-21T07:54:45.164Z,99.99
2019-02-21T07:55:45.195Z,99.99
2019-02-21T07:56:45.181Z,99.99
2019-02-21T07:57:45.196Z,99.99
2019-02-21T07:58:45.208Z,99.99
2019-02-21T07:59:45.195Z,99.99
2019-02-21T08:00:45.203Z,99.99
2019-02-21T08:01:45.219Z,99.99
2019-02-21T08:02:45.213Z,99.99
2019-02-21T08:03:48.313Z,99.99
2019-02-21T08:04:45.226Z,99.99
2019-02-21T08:05:45.232Z,99.99
2019-02-21T08:06:45.233Z,99.99
2019-02-21T08:07:45.247Z,99.99
2019-02-21T08:08:45.246Z,99.99
2019-02-21T08:09:45.256Z,99.99
2019-02-21T08:10:45.269Z,99.99
2019-02-21T08:11:45.280Z,99.99
2019-02-21T08:12:45.283Z,99.99
2019-02-21T08:13:45.287Z,99.99
2019-02-21T08:14:45.312Z,99.99
2019-02-21T08:15:45.342Z,99.99
2019-02-21T08:16:45.316Z,99.99
2019-02-21T08:17:45.318Z,99.99
2019-02-21T08:18:45.321Z,99.99
2019-02-21T08:19:45.332Z,99.99
2019-02-21T08:20:45.339Z,99.99
2019-02-21T08:21:45.438Z,99.99
2019-02-21T08:22:45.359Z,99.99
2019-02-21T08:23:50.456Z,99.99
2019-02-21T08:24:45.362Z,99.99
2019-02-21T08:25:45.368Z,99.99
2019-02-21T08:26:45.376Z,99.99
2019-02-21T08:27:45.398Z,99.99
2019-02-21T08:28:45.382Z,99.99
2019-02-21T08:29:45.385Z,99.99
2019-02-21T08:30:45.402Z,99.99
2019-02-21T08:31:45.411Z,99.99
2019-02-21T08:32:45.413Z,99.99
2019-02-21T08:33:55.448Z,99.99
2019-02-21T08:34:48.057Z,99.99
2019-02-21T08:35:45.434Z,99.99
2019-02-21T08:36:45.435Z,99.99
2019-02-21T08:37:45.435Z,99.99
2019-02-21T08:38:45.446Z,99.99
2019-02-21T08:39:45.454Z,99.99
2019-02-21T08:40:45.459Z,99.99
2019-02-21T08:41:45.464Z,99.99
2019-02-21T08:42:45.482Z,99.99
2019-02-21T08:43:45.483Z,99.99
2019-02-21T08:44:45.481Z,99.99
2019-02-21T08:45:45.494Z,99.99
2019-02-21T08:46:45.508Z,99.99
2019-02-21T08:47:45.496Z,99.99
2019-02-21T08:48:47.726Z,99.99
2019-02-21T08:49:45.512Z,99.99
2019-02-21T08:50:45.518Z,99.99
2019-02-21T08:51:45.530Z,99.99
2019-02-21T08:52:45.535Z,99.99
2019-02-21T08:53:45.530Z,99.99
2019-02-21T08:54:45.540Z,99.99
2019-02-21T08:55:45.545Z,99.99
2019-02-21T08:56:45.554Z,99.99
2019-02-21T08:57:45.569Z,99.99
2019-02-21T08:58:45.598Z,99.99
2019-02-21T08:59:45.577Z,99.99
2019-02-21T09:00:45.580Z,99.99
2019-02-21T09:01:45.582Z,99.99
2019-02-21T09:02:45.600Z,99.99
2019-02-21T09:03:45.591Z,99.99
2019-02-21T09:04:45.607Z,99.99
2019-02-21T09:05:45.603Z,99.99
2019-02-21T09:06:45.612Z,99.99
2019-02-21T09:07:46.569Z,99.99
2019-02-21T09:08:45.625Z,99.99
2019-02-21T09:09:45.628Z,99.99
2019-02-21T09:10:45.629Z,99.99
2019-02-21T09:11:45.649Z,99.99
2019-02-21T09:12:48.465Z,99.99
2019-02-21T09:13:45.648Z,99.99
2019-02-21T09:14:45.663Z,99.99
2019-02-21T09:15:46.579Z,99.99
2019-02-21T09:16:45.672Z,99.99
2019-02-21T09:17:45.673Z,99.99
2019-02-21T09:18:45.686Z,99.99
2019-02-21T09:19:45.691Z,99.99
2019-02-21T09:20:47.722Z,99.99
2019-02-21T09:21:45.702Z,99.99
2019-02-21T09:22:45.721Z,99.99
2019-02-21T09:23:45.711Z,99.99
2019-02-21T09:24:45.712Z,99.99
2019-02-21T09:25:45.716Z,99.99
2019-02-21T09:26:45.738Z,99.99
2019-02-21T09:27:45.740Z,99.99
2019-02-21T09:28:45.740Z,99.99
2019-02-21T09:29:45.749Z,99.99
2019-02-21T09:30:45.785Z,99.99
2019-02-21T09:31:45.768Z,99.99
2019-02-21T09:32:45.774Z,99.99
2019-02-21T09:33:45.767Z,99.99
2019-02-21T09:34:45.778Z,99.99
2019-02-21T09:35:45.782Z,99.99
2019-02-21T09:36:45.788Z,99.99
2019-02-21T09:37:45.810Z,99.99
2019-02-21T09:38:45.839Z,99.99
2019-02-21T09:39:45.808Z,99.99
2019-02-21T09:40:45.829Z,99.99
2019-02-21T09:41:45.828Z,99.99
2019-02-21T09:42:45.819Z,99.99
2019-02-21T09:43:45.838Z,99.99
2019-02-21T09:44:45.837Z,99.99
2019-02-21T09:45:45.837Z,99.99
2019-02-21T09:46:45.853Z,99.99
2019-02-21T09:47:45.855Z,99.99
2019-02-21T09:48:45.859Z,99.99
2019-02-21T09:49:45.861Z,99.99
2019-02-21T09:50:45.882Z,99.99
2019-02-21T09:51:45.871Z,99.99
2019-02-21T09:52:45.885Z,99.99
2019-02-21T09:53:45.889Z,99.99
2019-02-21T09:54:47.522Z,99.99
2019-02-21T09:55:45.894Z,99.99
2019-02-21T09:56:52.927Z,99.99
2019-02-21T09:57:45.919Z,99.99
2019-02-21T09:58:46.093Z,99.99
2019-02-21T09:59:45.932Z,99.99
2019-02-21T10:00:45.932Z,99.99
2019-02-21T10:01:45.940Z,99.99
2019-02-21T10:02:45.952Z,99.99
2019-02-21T10:03:45.957Z,99.99
2019-02-21T10:04:45.959Z,99.99
2019-02-21T10:05:45.976Z,99.99
2019-02-21T10:06:45.974Z,99.99
2019-02-21T10:07:45.979Z,99.99
2019-02-21T10:08:45.989Z,99.99
2019-02-21T10:09:46.014Z,99.99
2019-02-21T10:10:46.001Z,99.99
2019-02-21T10:12:46.017Z,99.99
2019-02-21T10:13:46.033Z,99.99
2019-02-21T10:14:46.033Z,99.99
2019-02-21T10:15:47.131Z,99.99
2019-02-21T10:16:46.131Z,99.99
2019-02-21T10:17:46.061Z,99.99
2019-02-21T10:18:46.069Z,99.99
2019-02-21T10:19:46.071Z,99.99
2019-02-21T10:20:46.073Z,99.99
2019-02-21T10:21:46.088Z,99.99
2019-02-21T10:22:46.095Z,99.99
2019-02-21T10:23:46.101Z,99.99
2019-02-21T10:24:46.115Z,99.99
2019-02-21T10:25:46.111Z,99.99
2019-02-21T10:26:46.118Z,99.99
2019-02-21T10:27:46.129Z,99.99
2019-02-21T10:28:46.137Z,99.99
2019-02-21T10:29:46.140Z,99.99
2019-02-21T10:30:46.156Z,99.99
2019-02-21T10:31:46.162Z,99.99
2019-02-21T10:32:46.182Z,99.99
2019-02-21T10:33:47.294Z,99.99
2019-02-21T10:34:46.190Z,99.99
2019-02-21T10:35:46.193Z,99.99
2019-02-21T10:36:46.203Z,99.99
2019-02-21T10:37:46.203Z,99.99
2019-02-21T10:38:46.218Z,99.99
2019-02-21T10:39:47.900Z,99.99
2019-02-21T10:40:46.234Z,99.99
2019-02-21T10:41:46.241Z,99.99
2019-02-21T10:42:46.255Z,99.99
2019-02-21T10:43:46.259Z,99.99
2019-02-21T10:44:46.265Z,99.99
2019-02-21T10:45:48.158Z,99.99
2019-02-21T10:46:46.312Z,99.99
2019-02-21T10:47:46.297Z,99.99
2019-02-21T10:48:46.306Z,99.99
2019-02-21T10:49:46.307Z,99.99
2019-02-21T10:50:46.320Z,99.99
2019-02-21T10:51:46.318Z,99.99
2019-02-21T10:52:46.331Z,99.99
2019-02-21T10:53:46.340Z,99.99
2019-02-21T10:54:46.347Z,99.99
2019-02-21T10:55:48.073Z,99.99
2019-02-21T10:56:46.356Z,99.99
2019-02-21T10:57:46.365Z,99.99
2019-02-21T10:58:46.391Z,99.99
2019-02-21T10:59:47.127Z,99.95
2019-02-21T11:00:46.395Z,99.99
2019-02-21T11:01:46.401Z,99.95
2019-02-21T11:02:46.400Z,99.66
2019-02-21T11:03:46.424Z,98.99
2019-02-21T11:04:54.457Z,98.90
2019-02-21T11:05:46.430Z,98.70
2019-02-21T11:06:46.443Z,98.61
2019-02-21T11:07:46.444Z,98.13
2019-02-21T11:08:46.460Z,98.70
2019-02-21T11:09:46.467Z,99.37
2019-02-21T11:10:46.487Z,98.61
2019-02-21T11:11:46.483Z,98.37
2019-02-21T11:12:46.494Z,98.08
2019-02-21T11:13:46.503Z,97.51
2019-02-21T11:14:47.731Z,97.61
2019-02-21T11:15:46.528Z,97.42
2019-02-21T11:16:46.530Z,97.37
2019-02-21T11:17:46.558Z,97.37
2019-02-21T11:18:46.541Z,98.32
2019-02-21T11:19:46.556Z,98.51
2019-02-21T11:20:46.584Z,98.51
2019-02-21T11:21:46.567Z,98.42
2019-02-21T11:22:46.583Z,97.71
2019-02-21T11:23:46.586Z,97.71
2019-02-21T11:24:46.600Z,97.42
2019-02-21T11:25:46.604Z,96.56
2019-02-21T11:26:46.619Z,96.17
2019-02-21T11:27:46.618Z,95.79
2019-02-21T11:28:47.388Z,95.79
2019-02-21T11:29:46.641Z,96.17
2019-02-21T11:30:46.644Z,96.37
2019-02-21T11:31:46.656Z,96.46
2019-02-21T11:32:46.663Z,95.98
2019-02-21T11:33:46.669Z,96.75
2019-02-21T11:34:46.679Z,96.66
2019-02-21T11:35:46.697Z,97.61
2019-02-21T11:36:46.705Z,98.37
2019-02-21T11:37:47.505Z,98.70
2019-02-21T11:38:46.708Z,99.75
2019-02-21T11:39:46.725Z,99.99
2019-02-21T11:40:46.734Z,99.99
2019-02-21T11:41:46.782Z,99.99
2019-02-21T11:42:46.746Z,99.99
2019-02-21T11:43:46.755Z,99.99
2019-02-21T11:44:46.768Z,99.99
2019-02-21T11:45:53.937Z,99.99
2019-02-21T11:46:46.777Z,99.99
2019-02-21T11:47:46.788Z,99.99
2019-02-21T11:48:46.819Z,99.99
2019-02-21T11:49:46.801Z,99.99
2019-02-21T11:50:46.806Z,99.99
2019-02-21T11:51:46.819Z,99.99
2019-02-21T11:52:46.823Z,99.99
2019-02-21T11:53:46.828Z,99.99
2019-02-21T11:54:46.836Z,99.99
2019-02-21T11:55:46.853Z,99.99
2019-02-21T11:56:46.865Z,99.99
2019-02-21T11:57:46.860Z,99.99
2019-02-21T11:58:46.865Z,98.47
2019-02-21T11:59:46.881Z,95.32
2019-02-21T12:00:46.890Z,91.16
2019-02-21T12:01:46.894Z,90.44
2019-02-21T12:02:46.909Z,87.99
2019-02-21T12:03:46.935Z,87.80
2019-02-21T12:04:46.935Z,87.99
2019-02-21T12:05:46.948Z,86.27
2019-02-21T12:06:47.753Z,87.85
2019-02-21T12:07:46.967Z,89.72
2019-02-21T12:08:46.982Z,90.73
2019-02-21T12:09:46.987Z,92.21
2019-02-21T12:10:47.002Z,94.60
2019-02-21T12:11:47.032Z,94.41
2019-02-21T12:12:47.034Z,94.41
2019-02-21T12:13:47.038Z,95.79
2019-02-21T12:14:47.050Z,95.32
2019-02-21T12:15:47.062Z,94.36
2019-02-21T12:16:47.083Z,93.36
2019-02-21T12:17:47.080Z,93.70
2019-02-21T12:18:47.099Z,94.02
2019-02-21T12:19:47.106Z,93.74
2019-02-21T12:20:47.123Z,94.17
2019-02-21T12:21:58.432Z,91.74
2019-02-21T12:22:47.138Z,91.93
2019-02-21T12:23:47.150Z,92.30
2019-02-21T12:24:47.157Z,91.74
2019-02-21T12:25:47.165Z,92.02
2019-02-21T12:26:47.174Z,92.50
2019-02-21T12:27:47.190Z,91.83
2019-02-21T12:28:47.217Z,92.30
2019-02-21T12:29:47.213Z,92.02
2019-02-21T12:30:47.227Z,92.50
2019-02-21T12:31:47.240Z,91.54
2019-02-21T12:32:47.250Z,91.21
2019-02-21T12:33:47.260Z,91.21
2019-02-21T12:34:47.253Z,91.59
2019-02-21T12:35:47.269Z,91.11
2019-02-21T12:36:47.283Z,91.30
2019-02-21T12:37:47.292Z,90.54
2019-02-21T12:38:47.302Z,91.11
2019-02-21T12:39:47.307Z,90.73
2019-02-21T12:40:47.322Z,90.83
2019-02-21T12:41:47.336Z,91.30
2019-02-21T12:42:47.338Z,90.83
2019-02-21T12:43:47.352Z,91.21
2019-02-21T12:44:47.954Z,91.21
2019-02-21T12:45:47.367Z,90.25
2019-02-21T12:46:47.373Z,91.40
2019-02-21T12:47:52.946Z,91.11
2019-02-21T12:48:47.395Z,91.16
2019-02-21T12:49:47.414Z,90.97
2019-02-21T12:50:47.411Z,90.88
2019-02-21T12:51:47.425Z,90.49
2019-02-21T12:52:47.431Z,90.30
2019-02-21T12:53:47.444Z,90.78
2019-02-21T12:54:47.459Z,90.16
2019-02-21T12:55:47.458Z,91.02
2019-02-21T12:56:47.467Z,91.21
2019-02-21T12:57:47.478Z,91.06
2019-02-21T12:58:47.493Z,91.54
2019-02-21T12:59:47.492Z,91.06
2019-02-21T13:00:47.516Z,90.59
2019-02-21T13:01:47.512Z,89.92
2019-02-21T13:02:47.522Z,89.92
2019-02-21T13:03:47.533Z,90.01
2019-02-21T13:04:47.547Z,89.82
2019-02-21T13:05:47.548Z,89.53
2019-02-21T13:06:47.566Z,88.96
2019-02-21T13:07:47.566Z,88.96
2019-02-21T13:08:47.577Z,88.48
2019-02-21T13:09:47.592Z,88.58
2019-02-21T13:10:47.598Z,88.48
2019-02-21T13:11:47.607Z,88.20
2019-02-21T13:12:47.611Z,88.20
2019-02-21T13:13:47.622Z,87.53
2019-02-21T13:14:47.636Z,87.72
2019-02-21T13:15:47.651Z,87.43
2019-02-21T13:16:47.651Z,86.96
2019-02-21T13:17:47.669Z,87.34
2019-02-21T13:18:47.673Z,87.34
2019-02-21T13:19:47.677Z,86.76
2019-02-21T13:20:47.693Z,86.86
2019-02-21T13:21:47.696Z,86.10
2019-02-21T13:22:47.705Z,86.10
2019-02-21T13:23:47.719Z,86.00
2019-02-21T13:24:47.728Z,86.29
2019-02-21T13:25:47.733Z,86.29
2019-02-21T13:26:47.743Z,86.82
2019-02-21T13:27:47.749Z,87.48
2019-02-21T13:28:47.761Z,87.77
2019-02-21T13:29:47.764Z,87.68
2019-02-21T13:30:47.784Z,88.25
2019-02-21T13:31:47.795Z,87.91
2019-02-21T13:32:47.800Z,87.87
2019-02-21T13:33:47.818Z,88.48
2019-02-21T13:34:47.818Z,88.20
2019-02-21T13:35:52.801Z,87.68
2019-02-21T13:36:47.844Z,88.34
2019-02-21T13:37:47.841Z,89.11
2019-02-21T13:38:47.850Z,88.92
2019-02-21T13:39:47.851Z,88.92
2019-02-21T13:40:49.627Z,88.92
2019-02-21T13:41:47.877Z,88.73
2019-02-21T13:42:47.881Z,89.01
2019-02-21T13:43:47.895Z,89.30
2019-02-21T13:44:47.896Z,89.49
2019-02-21T13:45:47.909Z,89.78
2019-02-21T13:46:47.918Z,90.06
2019-02-21T13:47:47.924Z,89.78
2019-02-21T13:48:47.933Z,90.06
2019-02-21T13:49:47.945Z,89.87
2019-02-21T13:50:47.946Z,90.45
2019-02-21T13:51:47.966Z,89.97
2019-02-21T13:52:47.956Z,90.45
2019-02-21T13:53:47.993Z,90.45
2019-02-21T13:54:47.997Z,90.54
2019-02-21T13:55:50.842Z,89.97
2019-02-21T13:56:48.000Z,90.25
2019-02-21T13:57:48.009Z,90.64
2019-02-21T13:58:48.011Z,90.64
2019-02-21T13:59:48.022Z,90.64
2019-02-21T14:00:48.031Z,90.73
2019-02-21T14:01:48.041Z,90.45
2019-02-21T14:02:48.050Z,90.54
2019-02-21T14:03:48.055Z,89.87
2019-02-21T14:04:48.063Z,89.87
2019-02-21T14:05:48.076Z,89.97
2019-02-21T14:06:48.092Z,90.16
2019-02-21T14:07:48.099Z,89.49
2019-02-21T14:08:48.096Z,89.20
2019-02-21T14:09:48.111Z,89.20
2019-02-21T14:10:48.127Z,89.20
2019-02-21T14:11:48.139Z,88.82
2019-02-21T14:12:48.154Z,89.01
2019-02-21T14:13:48.125Z,88.63
2019-02-21T14:14:48.147Z,89.30
2019-02-21T14:15:48.147Z,89.20
2019-02-21T14:16:48.164Z,89.49
2019-02-21T14:17:48.170Z,90.25
2019-02-21T14:18:48.181Z,89.78
2019-02-21T14:19:48.189Z,90.16
2019-02-21T14:20:48.286Z,89.68
2019-02-21T14:21:48.266Z,90.06
2019-02-21T14:22:48.202Z,89.97
2019-02-21T14:23:48.223Z,89.97
2019-02-21T14:24:48.228Z,90.06
2019-02-21T14:25:48.238Z,89.87
2019-02-21T14:26:48.250Z,90.16
2019-02-21T14:27:48.249Z,89.68
2019-02-21T14:28:48.262Z,89.59
2019-02-21T14:29:48.263Z,89.20
2019-02-21T14:30:48.287Z,89.49
2019-02-21T14:31:48.292Z,89.49
2019-02-21T14:32:48.290Z,89.20
2019-02-21T14:33:48.302Z,89.87
2019-02-21T14:34:48.322Z,89.78
2019-02-21T14:35:48.313Z,89.49
2019-02-21T14:36:48.316Z,89.30
2019-02-21T14:37:48.343Z,89.59
2019-02-21T14:38:48.355Z,89.39
2019-02-21T14:39:48.348Z,89.97
2019-02-21T14:40:48.356Z,89.78
2019-02-21T14:41:48.369Z,89.87
2019-02-21T14:42:48.369Z,89.97
2019-02-21T14:43:48.384Z,90.35
2019-02-21T14:44:49.550Z,89.97
2019-02-21T14:45:48.391Z,90.73
2019-02-21T14:46:50.280Z,90.54
2019-02-21T14:47:48.410Z,90.25
2019-02-21T14:48:48.428Z,90.25
2019-02-21T14:49:48.423Z,90.16
2019-02-21T14:50:48.437Z,90.25
2019-02-21T14:51:48.441Z,90.45
2019-02-21T14:52:48.515Z,89.87
2019-02-21T14:53:48.459Z,89.78
2019-02-21T14:54:48.470Z,89.49
2019-02-21T14:55:48.475Z,89.30
2019-02-21T14:56:48.490Z,89.59
2019-02-21T14:57:48.487Z,89.59
2019-02-21T14:58:48.496Z,89.30
2019-02-21T14:59:48.519Z,89.30
2019-02-21T15:00:48.528Z,89.78
2019-02-21T15:01:48.516Z,89.78
2019-02-21T15:02:48.544Z,89.87
2019-02-21T15:03:48.539Z,90.25
2019-02-21T15:04:48.546Z,90.64
2019-02-21T15:05:48.565Z,90.45
2019-02-21T15:06:48.567Z,89.97
2019-02-21T15:07:48.579Z,89.78
2019-02-21T15:08:48.589Z,89.59
2019-02-21T15:09:48.585Z,89.49
2019-02-21T15:10:48.595Z,89.59
2019-02-21T15:11:48.600Z,89.01
2019-02-21T15:12:48.616Z,89.20
2019-02-21T15:13:48.618Z,89.39
2019-02-21T15:14:48.636Z,89.20
2019-02-21T15:15:48.624Z,89.20
2019-02-21T15:16:48.648Z,89.20
2019-02-21T15:17:48.652Z,89.30
2019-02-21T15:18:48.661Z,89.20
2019-02-21T15:19:48.672Z,89.39
2019-02-21T15:20:48.686Z,89.30
2019-02-21T15:21:48.695Z,89.30
2019-02-21T15:22:48.694Z,89.68
2019-02-21T15:23:48.709Z,90.25
2019-02-21T15:24:48.714Z,89.97
2019-02-21T15:25:48.729Z,90.06
2019-02-21T15:26:48.728Z,90.06
2019-02-21T15:27:48.721Z,89.68
2019-02-21T15:28:48.738Z,90.73
2019-02-21T15:29:48.742Z,90.64
2019-02-21T15:30:48.754Z,90.16
2019-02-21T15:31:48.761Z,89.59
2019-02-21T15:32:48.768Z,90.16
2019-02-21T15:33:48.777Z,89.87
2019-02-21T15:34:48.785Z,90.83
2019-02-21T15:35:48.805Z,90.25
2019-02-21T15:36:48.803Z,90.50
2019-02-21T15:37:48.807Z,91.07
2019-02-21T15:38:48.926Z,90.88
2019-02-21T15:39:48.830Z,90.97
2019-02-21T15:40:48.841Z,91.26
2019-02-21T15:41:48.840Z,91.36
2019-02-21T15:42:48.850Z,91.74
2019-02-21T15:43:48.853Z,91.74
2019-02-21T15:44:48.889Z,91.93
2019-02-21T15:45:48.866Z,91.36
2019-02-21T15:46:48.891Z,91.64
2019-02-21T15:47:48.889Z,91.55
2019-02-21T15:48:48.977Z,91.55
2019-02-21T15:49:48.905Z,91.74
2019-02-21T15:50:48.914Z,91.93
2019-02-21T15:51:48.914Z,92.41
2019-02-21T15:52:48.926Z,92.41
2019-02-21T15:53:48.934Z,92.41
2019-02-21T15:54:48.947Z,92.79
2019-02-21T15:55:48.954Z,92.88
2019-02-21T15:56:48.962Z,93.26
2019-02-21T15:57:48.961Z,93.26
2019-02-21T15:58:48.969Z,92.97
2019-02-21T15:59:48.981Z,93.65
2019-02-21T16:00:48.976Z,94.12
2019-02-21T16:01:48.992Z,93.65
2019-02-21T16:02:48.996Z,93.74
2019-02-21T16:03:49.021Z,93.74
2019-02-21T16:04:49.013Z,94.22
2019-02-21T16:05:49.020Z,94.41
2019-02-21T16:06:51.843Z,94.70
2019-02-21T16:07:49.047Z,95.17
2019-02-21T16:08:49.045Z,96.13
2019-02-21T16:09:49.065Z,96.70
2019-02-21T16:10:49.057Z,97.32
2019-02-21T16:11:49.073Z,97.71
2019-02-21T16:12:49.639Z,98.37
2019-02-21T16:13:51.285Z,98.27
2019-02-21T16:14:49.083Z,98.66
2019-02-21T16:15:49.098Z,98.85
2019-02-21T16:16:49.106Z,98.75
2019-02-21T16:17:49.109Z,98.56
2019-02-21T16:18:49.117Z,99.04
2019-02-21T16:19:49.145Z,99.04
2019-02-21T16:20:49.123Z,99.13
2019-02-21T16:21:49.151Z,99.32
2019-02-21T16:22:49.144Z,98.94
2019-02-21T16:23:49.157Z,99.13
2019-02-21T16:24:49.152Z,98.66
2019-02-21T16:25:49.164Z,99.23
2019-02-21T16:26:49.158Z,99.04
2019-02-21T16:27:49.165Z,99.13
2019-02-21T16:28:49.184Z,98.94
2019-02-21T16:29:49.189Z,99.71
2019-02-21T16:30:49.196Z,99.32
2019-02-21T16:31:49.209Z,99.32
2019-02-21T16:32:49.211Z,99.52
2019-02-21T16:33:49.224Z,99.32
2019-02-21T16:34:49.221Z,99.61
2019-02-21T16:35:49.233Z,99.23
2019-02-21T16:36:49.242Z,99.99
2019-02-21T16:37:49.248Z,99.99
2019-02-21T16:38:49.250Z,99.99
2019-02-21T16:39:49.267Z,99.99
2019-02-21T16:40:49.344Z,99.99
2019-02-21T16:41:49.283Z,99.99
2019-02-21T16:42:49.277Z,99.99
2019-02-21T16:43:49.291Z,99.99
2019-02-21T16:44:49.300Z,99.99
2019-02-21T16:45:53.759Z,99.99
2019-02-21T16:46:49.312Z,99.99
2019-02-21T16:47:49.320Z,99.99
2019-02-21T16:48:49.334Z,99.99
2019-02-21T16:49:49.334Z,99.99
2019-02-21T16:50:49.331Z,99.99
2019-02-21T16:51:49.343Z,99.99
2019-02-21T16:52:49.357Z,99.99
2019-02-21T16:53:49.354Z,99.99
2019-02-21T16:54:49.370Z,99.99
2019-02-21T16:55:49.374Z,99.99
2019-02-21T16:56:49.376Z,99.99
2019-02-21T16:57:49.390Z,99.99
2019-02-21T16:58:49.397Z,99.99
2019-02-21T16:59:49.401Z,99.99
2019-02-21T17:00:54.704Z,99.99
2019-02-21T17:01:49.410Z,99.99
2019-02-21T17:02:49.419Z,99.99
2019-02-21T17:03:49.425Z,99.99
2019-02-21T17:04:49.442Z,99.99
2019-02-21T17:05:49.442Z,99.99
2019-02-21T17:06:49.521Z,99.99
2019-02-21T17:07:49.451Z,99.99
2019-02-21T17:08:49.459Z,99.99
2019-02-21T17:09:49.461Z,99.99
2019-02-21T17:10:49.468Z,99.99
2019-02-21T17:11:49.477Z,99.99
2019-02-21T17:13:49.492Z,99.99
2019-02-21T17:14:49.498Z,99.99
2019-02-21T17:15:49.509Z,99.99
2019-02-21T17:16:49.515Z,99.99
2019-02-21T17:17:49.579Z,99.99
2019-02-21T17:18:49.526Z,99.99
2019-02-21T17:19:49.531Z,99.99
2019-02-21T17:20:49.538Z,99.99
2019-02-21T17:21:49.540Z,99.99
2019-02-21T17:22:49.558Z,99.99
2019-02-21T17:23:49.575Z,99.99
2019-02-21T17:24:49.578Z,99.99
2019-02-21T17:25:49.577Z,99.99
2019-02-21T17:26:49.580Z,99.99
2019-02-21T17:27:49.592Z,99.99
2019-02-21T17:28:49.591Z,99.99
2019-02-21T17:29:49.591Z,99.99
2019-02-21T17:30:49.613Z,99.99
2019-02-21T17:31:49.648Z,99.99
2019-02-21T17:32:49.613Z,99.99
2019-02-21T17:33:49.629Z,99.99
2019-02-21T17:34:49.633Z,99.99
2019-02-21T17:35:49.650Z,99.99
2019-02-21T17:36:49.642Z,99.99
2019-02-21T17:37:49.661Z,99.99
2019-02-21T17:38:49.665Z,99.99
2019-02-21T17:39:49.665Z,99.99
2019-02-21T17:40:49.674Z,99.99
2019-02-21T17:41:49.682Z,99.99
2019-02-21T17:42:49.689Z,99.99
2019-02-21T17:43:49.706Z,99.99
2019-02-21T17:44:49.702Z,99.99
2019-02-21T17:45:49.716Z,99.99
2019-02-21T17:46:49.719Z,99.99
2019-02-21T17:47:49.725Z,99.99
2019-02-21T17:48:49.737Z,99.99
2019-02-21T17:49:49.734Z,99.99
2019-02-21T17:50:49.745Z,99.99
2019-02-21T17:51:49.747Z,99.99
2019-02-21T17:52:49.753Z,99.99
2019-02-21T17:53:49.750Z,99.99
2019-02-21T17:54:49.770Z,99.99
2019-02-21T17:55:49.779Z,99.99
2019-02-21T17:56:49.799Z,99.99
2019-02-21T17:57:49.788Z,99.99
2019-02-21T17:58:49.798Z,99.99
2019-02-21T17:59:49.808Z,99.99
2019-02-21T18:00:49.805Z,99.99
2019-02-21T18:01:49.814Z,99.99
2019-02-21T18:02:49.822Z,99.99
2019-02-21T18:03:49.837Z,99.99
2019-02-21T18:04:49.841Z,99.99
2019-02-21T18:05:49.852Z,99.99
2019-02-21T18:06:49.840Z,99.99
2019-02-21T18:07:49.850Z,99.99
2019-02-21T18:08:49.857Z,99.99
2019-02-21T18:09:49.863Z,99.99
2019-02-21T18:10:49.874Z,99.99
2019-02-21T18:11:49.892Z,99.99
2019-02-21T18:12:50.045Z,99.99
2019-02-21T18:13:49.901Z,99.99
2019-02-21T18:14:49.904Z,99.99
2019-02-21T18:15:49.899Z,99.99
2019-02-21T18:16:49.909Z,99.99
2019-02-21T18:17:49.917Z,99.99
2019-02-21T18:18:49.925Z,99.99
2019-02-21T18:19:49.931Z,99.99
2019-02-21T18:20:49.940Z,99.99
2019-02-21T18:21:49.953Z,99.99
2019-02-21T18:22:49.950Z,99.99
2019-02-21T18:23:49.954Z,99.99
2019-02-21T18:24:49.962Z,99.99
2019-02-21T18:25:49.967Z,99.99
2019-02-21T18:26:49.962Z,99.99
2019-02-21T18:27:49.978Z,99.99
2019-02-21T18:28:49.998Z,99.99
2019-02-21T18:29:50.005Z,99.99
2019-02-21T18:30:50.063Z,99.99
2019-02-21T18:31:50.849Z,99.99
2019-02-21T18:32:50.011Z,99.99
2019-02-21T18:33:50.037Z,99.99
2019-02-21T18:34:50.029Z,99.99
2019-02-21T18:35:50.038Z,99.99
2019-02-21T18:36:50.039Z,99.99
2019-02-21T18:37:50.045Z,99.99
2019-02-21T18:38:50.052Z,99.99
2019-02-21T18:39:50.062Z,99.99
2019-02-21T18:40:50.068Z,99.99
2019-02-21T18:41:50.067Z,99.99
2019-02-21T18:42:50.075Z,99.99
2019-02-21T18:43:50.076Z,99.99
2019-02-21T18:44:50.092Z,99.99
2019-02-21T18:45:50.096Z,99.99
2019-02-21T18:46:50.100Z,99.99
2019-02-21T18:47:50.106Z,99.99
2019-02-21T18:48:50.116Z,99.99
2019-02-21T18:49:50.157Z,99.99
2019-02-21T18:50:50.129Z,99.99
2019-02-21T18:51:50.226Z,99.99
2019-02-21T18:52:50.144Z,99.99
2019-02-21T18:53:50.139Z,99.99
2019-02-21T18:54:50.172Z,99.99
2019-02-21T18:55:50.170Z,99.99
2019-02-21T18:56:50.165Z,99.99
2019-02-21T18:57:50.174Z,99.99
2019-02-21T18:58:50.236Z,99.99
2019-02-21T18:59:50.187Z,99.99
2019-02-21T19:00:50.188Z,99.99
2019-02-21T19:01:50.197Z,99.99
2019-02-21T19:02:50.204Z,99.99
2019-02-21T19:03:50.211Z,99.99
2019-02-21T19:04:50.216Z,99.99
2019-02-21T19:05:50.221Z,99.99
2019-02-21T19:06:50.225Z,99.99
2019-02-21T19:07:58.313Z,99.99
2019-02-21T19:08:50.253Z,99.99
2019-02-21T19:09:50.251Z,99.99
2019-02-21T19:10:50.255Z,99.99
2019-02-21T19:11:50.260Z,99.99
2019-02-21T19:12:50.256Z,99.99
2019-02-21T19:13:50.274Z,99.99
2019-02-21T19:14:50.276Z,99.99
2019-02-21T19:15:50.286Z,99.99
2019-02-21T19:16:50.295Z,99.99
2019-02-21T19:17:50.304Z,99.99
2019-02-21T19:18:50.304Z,99.99
2019-02-21T19:19:50.320Z,99.99
2019-02-21T19:20:50.311Z,99.99
2019-02-21T19:21:50.324Z,99.99
2019-02-21T19:22:50.322Z,99.99
2019-02-21T19:23:50.332Z,99.99
2019-02-21T19:24:50.350Z,99.99
2019-02-21T19:25:50.346Z,99.99
2019-02-21T19:26:50.354Z,99.99
2019-02-21T19:27:50.360Z,99.99
2019-02-21T19:28:50.374Z,99.99
2019-02-21T19:29:50.371Z,99.99
2019-02-21T19:30:50.371Z,99.99
2019-02-21T19:31:50.394Z,99.99
2019-02-21T19:32:50.385Z,99.99
2019-02-21T19:33:50.392Z,99.99
2019-02-21T19:34:50.392Z,99.99
2019-02-21T19:35:50.410Z,99.99
2019-02-21T19:36:50.419Z,99.99
2019-02-21T19:37:50.469Z,99.99
2019-02-21T19:38:50.433Z,99.99
2019-02-21T19:39:50.440Z,99.99
2019-02-21T19:40:50.443Z,99.99
2019-02-21T19:41:50.442Z,99.99
2019-02-21T19:42:50.448Z,99.99
2019-02-21T19:43:50.456Z,99.99
2019-02-21T19:44:50.462Z,99.99
2019-02-21T19:45:50.470Z,99.99
2019-02-21T19:46:50.475Z,99.99
2019-02-21T19:47:50.497Z,99.99
2019-02-21T19:48:50.491Z,99.99
2019-02-21T19:49:50.496Z,99.99